createdAt,value
2022-07-26T00:02:28.127Z,74.87
2022-07-26T00:05:33.988Z,74.88
2022-07-26T00:08:40.660Z,74.95
2022-07-26T00:11:46.928Z,75.00
2022-07-26T00:14:52.171Z,75.10
2022-07-26T00:17:58.241Z,75.13
2022-07-26T00:21:10.033Z,75.10
2022-07-26T00:24:19.253Z,75.09
2022-07-26T00:27:25.733Z,75.12
2022-07-26T00:30:32.614Z,75.14
2022-07-26T00:33:37.755Z,75.15
2022-07-26T00:36:45.046Z,75.14
2022-07-26T00:39:51.728Z,75.13
2022-07-26T00:42:57.776Z,75.14
2022-07-26T00:46:03.381Z,75.17
2022-07-26T00:49:09.781Z,75.19
2022-07-26T00:52:17.910Z,75.20
2022-07-26T00:55:24.753Z,75.22
2022-07-26T00:58:32.289Z,75.25
2022-07-26T01:04:59.583Z,75.35
2022-07-26T01:08:05.766Z,75.37
2022-07-26T01:11:12.906Z,75.44
2022-07-26T01:14:19.885Z,75.52
2022-07-26T01:17:27.388Z,75.56
2022-07-26T01:20:33.453Z,75.62
2022-07-26T01:23:39.413Z,75.66
2022-07-26T01:26:45.994Z,75.70
2022-07-26T01:29:52.465Z,75.69
2022-07-26T01:32:59.226Z,75.70
2022-07-26T01:36:08.263Z,75.71
2022-07-26T01:39:14.839Z,75.72
2022-07-26T01:42:21.910Z,75.78
2022-07-26T01:45:29.741Z,75.85
2022-07-26T01:48:37.527Z,75.87
2022-07-26T01:51:44.100Z,75.94
2022-07-26T01:54:50.938Z,75.93
2022-07-26T01:58:00.858Z,75.90
2022-07-26T02:01:07.192Z,75.96
2022-07-26T02:04:13.070Z,75.99
2022-07-26T02:07:19.100Z,76.03
2022-07-26T02:10:28.649Z,76.03
2022-07-26T02:13:35.019Z,76.07
2022-07-26T02:16:40.777Z,76.11
2022-07-26T02:19:46.114Z,76.14
2022-07-26T02:22:53.004Z,76.07
2022-07-26T02:25:58.653Z,76.06
2022-07-26T02:29:06.247Z,76.09
2022-07-26T02:32:11.901Z,76.09
2022-07-26T02:35:17.545Z,76.13
2022-07-26T02:38:25.754Z,76.22
2022-07-26T02:41:31.920Z,76.27
2022-07-26T02:44:37.971Z,76.28
2022-07-26T02:47:43.428Z,76.37
2022-07-26T02:50:52.160Z,76.39
2022-07-26T02:53:59.344Z,76.37
2022-07-26T02:57:07.141Z,76.41
2022-07-26T03:00:12.173Z,76.41
2022-07-26T03:03:20.916Z,76.44
2022-07-26T03:06:28.397Z,76.55
2022-07-26T03:09:36.197Z,76.53
2022-07-26T03:12:42.158Z,76.53
2022-07-26T03:15:47.323Z,76.58
2022-07-26T03:18:53.006Z,76.62
2022-07-26T03:21:58.497Z,76.64
2022-07-26T03:25:06.210Z,76.61
2022-07-26T03:28:17.472Z,76.64
2022-07-26T03:31:22.260Z,76.67
2022-07-26T03:34:28.497Z,76.59
2022-07-26T03:37:46.020Z,76.59
2022-07-26T03:40:42.562Z,76.58
2022-07-26T03:43:48.821Z,76.50
2022-07-26T03:46:56.726Z,76.47
2022-07-26T03:50:02.501Z,76.57
2022-07-26T03:53:09.662Z,76.61
2022-07-26T03:56:32.322Z,76.59
2022-07-26T03:59:39.321Z,76.56
2022-07-26T04:02:46.477Z,76.54
2022-07-26T04:05:52.910Z,76.51
2022-07-26T04:08:59.013Z,76.59
2022-07-26T04:12:04.004Z,76.65
2022-07-26T04:15:10.125Z,76.57
2022-07-26T04:18:15.169Z,76.56
2022-07-26T04:21:22.437Z,76.47
2022-07-26T04:24:29.626Z,76.43
2022-07-26T04:27:38.448Z,76.40
2022-07-26T04:30:44.058Z,76.28
2022-07-26T04:33:49.856Z,76.35
2022-07-26T04:36:55.999Z,76.38
2022-07-26T04:40:02.803Z,76.44
2022-07-26T04:43:10.596Z,76.43
2022-07-26T04:46:17.130Z,76.41
2022-07-26T04:49:24.126Z,76.37
2022-07-26T04:52:29.305Z,76.31
2022-07-26T04:55:38.446Z,76.33
2022-07-26T04:58:43.640Z,76.29
2022-07-26T05:01:49.924Z,76.29
2022-07-26T05:04:56.724Z,76.28
2022-07-26T05:08:11.162Z,76.22
2022-07-26T05:11:19.999Z,76.22
2022-07-26T05:14:30.129Z,76.05
2022-07-26T05:17:40.688Z,76.01
2022-07-26T05:20:51.337Z,76.00
2022-07-26T05:23:57.641Z,75.97
2022-07-26T05:27:03.044Z,75.97
2022-07-26T05:30:11.969Z,76.00
2022-07-26T05:33:20.945Z,76.01
2022-07-26T05:36:27.421Z,75.95
2022-07-26T05:39:34.002Z,75.91
2022-07-26T05:42:41.174Z,75.89
2022-07-26T05:45:48.568Z,75.72
2022-07-26T05:49:01.847Z,75.74
2022-07-26T05:52:02.167Z,75.82
2022-07-26T05:55:08.056Z,75.83
2022-07-26T05:58:14.396Z,75.74
2022-07-26T06:01:22.881Z,75.74
2022-07-26T06:04:32.823Z,75.66
2022-07-26T06:07:40.085Z,75.69
2022-07-26T06:10:46.506Z,75.72
2022-07-26T06:13:56.562Z,75.74
2022-07-26T06:17:04.687Z,75.79
2022-07-26T06:20:17.159Z,75.76
2022-07-26T06:23:31.986Z,75.78
2022-07-26T06:26:33.510Z,75.81
2022-07-26T06:29:39.964Z,75.94
2022-07-26T06:33:15.812Z,75.87
2022-07-26T06:36:29.963Z,75.75
2022-07-26T06:39:33.818Z,75.68
2022-07-26T06:42:49.014Z,75.69
2022-07-26T06:46:02.645Z,75.65
2022-07-26T06:49:20.567Z,75.58
2022-07-26T06:52:25.758Z,75.46
2022-07-26T06:55:33.407Z,75.50
2022-07-26T06:58:42.245Z,75.50
2022-07-26T07:01:55.525Z,75.46
2022-07-26T07:04:51.519Z,75.47
2022-07-26T07:07:57.900Z,75.31
2022-07-26T07:11:19.865Z,75.44
2022-07-26T07:14:30.001Z,75.28
2022-07-26T07:17:36.771Z,75.18
2022-07-26T07:20:44.151Z,75.13
2022-07-26T07:23:51.857Z,75.04
2022-07-26T07:26:58.504Z,75.02
2022-07-26T07:30:05.939Z,75.01
2022-07-26T07:33:22.667Z,75.06
2022-07-26T07:36:25.583Z,75.03
2022-07-26T07:39:34.972Z,75.05
2022-07-26T07:42:44.207Z,74.85
2022-07-26T07:45:51.733Z,74.75
2022-07-26T07:48:58.165Z,74.80
2022-07-26T07:52:08.058Z,74.88
2022-07-26T07:55:40.374Z,74.91
2022-07-26T07:58:25.149Z,74.89
2022-07-26T08:01:39.918Z,74.73
2022-07-26T08:04:41.666Z,74.56
2022-07-26T08:07:52.580Z,74.57
2022-07-26T08:11:13.814Z,74.30
2022-07-26T08:14:21.850Z,74.14
2022-07-26T08:17:29.223Z,74.08
2022-07-26T08:20:40.059Z,74.11
2022-07-26T08:23:49.692Z,73.90
2022-07-26T08:27:02.094Z,73.91
2022-07-26T08:30:08.544Z,73.92
2022-07-26T08:33:17.000Z,73.84
2022-07-26T08:36:32.387Z,73.88
2022-07-26T08:39:35.750Z,73.97
2022-07-26T08:42:44.021Z,73.87
2022-07-26T08:45:57.794Z,73.85
2022-07-26T08:49:04.858Z,73.65
2022-07-26T08:52:10.451Z,73.30
2022-07-26T08:55:17.703Z,73.01
2022-07-26T08:58:26.805Z,72.70
2022-07-26T09:01:32.700Z,72.58
2022-07-26T09:04:45.155Z,72.57
2022-07-26T09:07:56.375Z,72.56
2022-07-26T09:11:08.434Z,72.26
2022-07-26T09:14:20.918Z,72.14
2022-07-26T09:17:36.116Z,72.08
2022-07-26T09:20:48.917Z,72.12
2022-07-26T09:23:55.307Z,72.18
2022-07-26T09:27:15.244Z,72.15
2022-07-26T09:30:27.483Z,72.14
2022-07-26T09:33:34.247Z,72.14
2022-07-26T09:36:40.326Z,72.24
2022-07-26T09:39:47.443Z,72.29
2022-07-26T09:43:15.744Z,72.24
2022-07-26T09:46:24.262Z,72.41
2022-07-26T09:49:40.719Z,72.35
2022-07-26T09:52:52.387Z,72.42
2022-07-26T09:56:06.979Z,72.29
2022-07-26T09:59:13.353Z,72.46
2022-07-26T10:02:25.355Z,72.39
2022-07-26T10:05:31.850Z,72.33
2022-07-26T10:08:38.522Z,72.05
2022-07-26T10:11:46.600Z,71.90
2022-07-26T10:14:55.805Z,71.58
2022-07-26T10:18:04.294Z,71.39
2022-07-26T10:21:12.294Z,71.06
2022-07-26T10:24:22.791Z,70.82
2022-07-26T10:27:49.810Z,70.53
2022-07-26T10:30:55.510Z,70.41
2022-07-26T10:34:06.384Z,70.41
2022-07-26T10:37:16.555Z,70.48
2022-07-26T10:40:36.286Z,70.39
2022-07-26T10:43:46.528Z,70.19
2022-07-26T10:47:14.177Z,70.01
2022-07-26T10:50:22.778Z,70.04
2022-07-26T10:53:42.325Z,69.52
2022-07-26T10:56:48.258Z,69.24
2022-07-26T10:59:56.568Z,69.09
2022-07-26T11:03:10.253Z,69.07
2022-07-26T11:06:31.386Z,69.19
2022-07-26T11:09:46.687Z,69.41
2022-07-26T11:12:53.953Z,69.68
2022-07-26T11:16:01.639Z,69.62
2022-07-26T11:19:08.457Z,69.45
2022-07-26T11:22:21.734Z,69.34
2022-07-26T11:25:38.213Z,69.28
2022-07-26T11:29:06.822Z,69.26
2022-07-26T11:32:22.365Z,69.04
2022-07-26T11:35:37.316Z,68.86
2022-07-26T11:39:06.842Z,68.27
2022-07-26T11:42:27.987Z,68.04
2022-07-26T11:45:38.740Z,67.85
2022-07-26T11:48:51.285Z,67.82
2022-07-26T11:52:10.806Z,67.75
2022-07-26T11:55:20.299Z,67.70
2022-07-26T11:58:27.318Z,67.73
2022-07-26T12:01:35.123Z,68.00
2022-07-26T12:04:52.650Z,68.16
2022-07-26T12:08:18.093Z,68.03
2022-07-26T12:11:28.539Z,67.68
2022-07-26T12:14:45.620Z,67.21
2022-07-26T12:17:52.779Z,67.11
2022-07-26T12:21:14.981Z,67.12
2022-07-26T12:25:02.312Z,67.14
2022-07-26T12:28:14.209Z,66.75
2022-07-26T12:31:19.520Z,66.14
2022-07-26T12:34:28.065Z,65.82
2022-07-26T12:37:40.665Z,65.61
2022-07-26T12:40:46.827Z,65.55
2022-07-26T12:44:17.708Z,65.59
2022-07-26T12:47:26.996Z,65.57
2022-07-26T12:50:35.130Z,65.56
2022-07-26T12:53:40.850Z,65.55
2022-07-26T12:56:47.458Z,65.53
2022-07-26T12:59:56.654Z,65.63
2022-07-26T13:03:05.425Z,65.62
2022-07-26T13:06:15.649Z,65.59
2022-07-26T13:09:22.579Z,65.26
2022-07-26T13:12:33.367Z,64.80
2022-07-26T13:15:40.758Z,64.41
2022-07-26T13:18:50.522Z,64.05
2022-07-26T13:21:58.705Z,63.85
2022-07-26T13:25:08.568Z,63.81
2022-07-26T13:28:21.361Z,63.86
2022-07-26T13:31:52.136Z,63.85
2022-07-26T13:35:07.795Z,63.64
2022-07-26T13:38:29.531Z,63.54
2022-07-26T13:41:42.770Z,63.38
2022-07-26T13:44:47.675Z,63.26
2022-07-26T13:47:56.427Z,63.02
2022-07-26T13:51:04.481Z,62.75
2022-07-26T13:54:12.987Z,62.64
2022-07-26T13:57:20.904Z,62.63
2022-07-26T14:00:31.915Z,62.75
2022-07-26T14:03:39.150Z,62.91
2022-07-26T14:06:47.547Z,62.95
2022-07-26T14:09:54.575Z,62.99
2022-07-26T14:13:02.221Z,63.07
2022-07-26T14:16:10.929Z,63.05
2022-07-26T14:19:21.239Z,63.02
2022-07-26T14:22:30.701Z,62.93
2022-07-26T14:25:42.637Z,62.95
2022-07-26T14:28:51.537Z,62.94
2022-07-26T14:32:00.612Z,62.88
2022-07-26T14:35:09.440Z,62.79
2022-07-26T14:38:23.335Z,62.91
2022-07-26T14:41:26.961Z,62.98
2022-07-26T14:44:33.981Z,63.01
2022-07-26T14:47:42.994Z,63.02
2022-07-26T14:51:08.793Z,63.04
2022-07-26T14:53:57.856Z,62.99
2022-07-26T14:57:06.455Z,62.98
2022-07-26T15:00:11.725Z,62.81
2022-07-26T15:03:20.550Z,62.76
2022-07-26T15:06:28.553Z,62.64
2022-07-26T15:09:36.489Z,62.71
2022-07-26T15:12:43.042Z,62.65
2022-07-26T15:15:51.384Z,62.73
2022-07-26T15:18:59.607Z,62.79
2022-07-26T15:22:10.545Z,62.88
2022-07-26T15:25:18.894Z,62.95
2022-07-26T15:28:25.843Z,62.99
2022-07-26T15:31:37.434Z,62.97
2022-07-26T15:34:42.629Z,62.92
2022-07-26T15:37:52.751Z,62.89
2022-07-26T15:41:00.019Z,62.95
2022-07-26T15:44:08.224Z,62.91
2022-07-26T15:47:43.439Z,62.90
2022-07-26T15:50:24.882Z,62.99
2022-07-26T15:53:30.721Z,63.00
2022-07-26T15:56:38.969Z,62.96
2022-07-26T15:59:45.417Z,62.93
2022-07-26T16:02:52.781Z,62.92
2022-07-26T16:06:05.475Z,62.97
2022-07-26T16:09:17.274Z,62.95
2022-07-26T16:12:20.706Z,62.93
2022-07-26T16:15:29.475Z,62.88
2022-07-26T16:18:36.511Z,62.91
2022-07-26T16:21:44.926Z,62.94
2022-07-26T16:24:53.602Z,62.90
2022-07-26T16:28:02.684Z,62.96
2022-07-26T16:31:13.158Z,63.00
2022-07-26T16:34:22.797Z,63.01
2022-07-26T16:37:30.312Z,63.01
2022-07-26T16:40:37.975Z,63.03
2022-07-26T16:43:45.877Z,63.06
2022-07-26T16:46:52.426Z,63.16
2022-07-26T16:49:59.065Z,63.30
2022-07-26T16:53:05.018Z,63.30
2022-07-26T16:56:03.471Z,63.31
2022-07-26T16:58:52.252Z,63.34
2022-07-26T17:01:45.821Z,63.39
2022-07-26T17:04:34.075Z,63.53
2022-07-26T17:07:34.618Z,63.58
2022-07-26T17:10:20.943Z,63.54
2022-07-26T17:13:15.207Z,63.56
2022-07-26T17:16:09.273Z,63.54
2022-07-26T17:19:15.906Z,63.58
2022-07-26T17:22:23.236Z,63.73
2022-07-26T17:25:32.233Z,63.87
2022-07-26T17:28:37.405Z,63.96
2022-07-26T17:31:44.810Z,64.01
2022-07-26T17:34:51.554Z,64.08
2022-07-26T17:37:57.393Z,64.14
2022-07-26T17:41:03.677Z,64.21
2022-07-26T17:44:13.789Z,64.25
2022-07-26T17:47:28.891Z,64.32
2022-07-26T17:50:38.121Z,64.44
2022-07-26T17:53:37.547Z,64.52
2022-07-26T17:56:44.223Z,64.61
2022-07-26T17:59:50.185Z,64.71
2022-07-26T18:02:50.589Z,64.80
2022-07-26T18:05:43.302Z,64.87
2022-07-26T18:08:51.634Z,64.95
2022-07-26T18:11:57.325Z,65.08
2022-07-26T18:15:04.771Z,65.15
2022-07-26T18:18:10.591Z,65.21
2022-07-26T18:21:17.104Z,65.35
2022-07-26T18:24:23.243Z,65.50
2022-07-26T18:27:30.259Z,65.65
2022-07-26T18:30:41.594Z,65.81
2022-07-26T18:33:47.431Z,65.91
2022-07-26T18:36:54.524Z,65.92
2022-07-26T18:40:00.005Z,65.95
2022-07-26T18:43:08.301Z,66.02
2022-07-26T18:46:15.816Z,66.09
2022-07-26T18:49:27.235Z,66.20
2022-07-26T18:52:32.857Z,66.26
2022-07-26T18:55:38.304Z,66.31
2022-07-26T18:58:43.958Z,66.43
2022-07-26T19:01:51.189Z,66.61
2022-07-26T19:05:01.553Z,66.67
2022-07-26T19:08:07.839Z,66.89
2022-07-26T19:11:13.933Z,66.94
2022-07-26T19:14:20.129Z,66.93
2022-07-26T19:17:26.773Z,66.90
2022-07-26T19:20:35.918Z,67.00
2022-07-26T19:23:40.596Z,67.14
2022-07-26T19:26:45.850Z,67.22
2022-07-26T19:29:52.374Z,67.29
2022-07-26T19:33:00.318Z,67.47
2022-07-26T19:36:06.548Z,67.66
2022-07-26T19:39:15.272Z,67.83
2022-07-26T19:42:22.029Z,67.97
2022-07-26T19:45:28.997Z,68.10
2022-07-26T19:48:35.866Z,68.19
2022-07-26T19:51:42.986Z,68.27
2022-07-26T19:54:49.294Z,68.36
2022-07-26T19:57:56.910Z,68.42
2022-07-26T20:01:05.854Z,68.46
2022-07-26T20:04:14.030Z,68.25
2022-07-26T20:07:20.492Z,68.34
2022-07-26T20:10:31.787Z,68.45
2022-07-26T20:13:35.411Z,68.48
2022-07-26T20:16:41.781Z,68.63
2022-07-26T20:19:48.636Z,68.74
2022-07-26T20:22:55.089Z,68.89
2022-07-26T20:26:02.289Z,69.03
2022-07-26T20:29:12.700Z,69.18
2022-07-26T20:32:19.730Z,69.33
2022-07-26T20:35:26.634Z,69.43
2022-07-26T20:38:32.653Z,69.53
2022-07-26T20:41:39.462Z,69.64
2022-07-26T20:44:45.940Z,69.80
2022-07-26T20:47:52.814Z,69.83
2022-07-26T20:50:59.710Z,69.96
2022-07-26T20:54:06.360Z,70.07
2022-07-26T20:57:12.841Z,70.16
2022-07-26T21:00:21.601Z,70.18
2022-07-26T21:03:31.626Z,70.27
2022-07-26T21:06:40.272Z,70.39
2022-07-26T21:09:46.929Z,70.45
2022-07-26T21:12:52.028Z,70.50
2022-07-26T21:15:59.006Z,70.51
2022-07-26T21:19:03.872Z,70.54
2022-07-26T21:22:09.978Z,70.58
2022-07-26T21:25:15.601Z,70.66
2022-07-26T21:28:22.422Z,70.81
2022-07-26T21:31:30.248Z,70.87
2022-07-26T21:34:37.512Z,70.84
2022-07-26T21:37:46.478Z,70.93
2022-07-26T21:40:54.807Z,71.04
2022-07-26T21:44:03.838Z,71.11
2022-07-26T21:47:13.783Z,71.08
2022-07-26T21:50:21.782Z,71.02
2022-07-26T21:53:28.678Z,71.07
2022-07-26T21:56:36.866Z,71.02
2022-07-26T21:59:42.636Z,71.20
2022-07-26T22:02:49.078Z,71.37
2022-07-26T22:05:55.878Z,71.51
2022-07-26T22:09:01.526Z,71.67
2022-07-26T22:12:08.099Z,71.83
2022-07-26T22:15:14.698Z,71.95
2022-07-26T22:18:21.352Z,71.85
2022-07-26T22:21:28.231Z,71.85
2022-07-26T22:24:34.908Z,71.90
2022-07-26T22:27:43.345Z,72.02
2022-07-26T22:30:51.142Z,72.15
2022-07-26T22:33:57.393Z,72.24
2022-07-26T22:37:03.668Z,72.23
2022-07-26T22:40:10.545Z,72.25
2022-07-26T22:43:16.813Z,72.25
2022-07-26T22:46:29.162Z,72.26
2022-07-26T22:49:32.483Z,72.37
2022-07-26T22:52:39.070Z,72.42
2022-07-26T22:55:45.871Z,72.48
2022-07-26T22:58:53.387Z,72.56
2022-07-26T23:02:00.665Z,72.62
2022-07-26T23:05:08.243Z,72.57
2022-07-26T23:08:45.091Z,72.73
2022-07-26T23:11:23.340Z,72.85
2022-07-26T23:14:29.812Z,72.95
2022-07-26T23:17:35.759Z,73.03
2022-07-26T23:20:45.107Z,73.07
2022-07-26T23:23:53.821Z,73.14
2022-07-26T23:26:58.768Z,73.21
2022-07-26T23:30:04.723Z,73.22
2022-07-26T23:33:10.992Z,73.34
2022-07-26T23:36:18.598Z,73.44
2022-07-26T23:39:27.212Z,73.51
2022-07-26T23:42:34.401Z,73.54
2022-07-26T23:45:42.970Z,73.50
2022-07-26T23:48:50.852Z,73.54
2022-07-26T23:51:57.699Z,73.63
2022-07-26T23:55:09.260Z,73.72
2022-07-26T23:58:16.559Z,73.74
